createdAt,value
2018-06-05T00:00:38.113Z,17.31
2018-06-05T00:01:46.974Z,17.28
2018-06-05T00:02:56.314Z,17.3
2018-06-05T00:04:05.451Z,17.25
2018-06-05T00:05:14.318Z,17.19
2018-06-05T00:06:23.458Z,17.33
2018-06-05T00:07:32.323Z,17.33
2018-06-05T00:08:41.333Z,17.48
2018-06-05T00:09:50.198Z,17.31
2018-06-05T00:10:59.063Z,17.23
2018-06-05T00:12:08.200Z,17.21
2018-06-05T00:13:17.338Z,17.19
2018-06-05T00:14:26.551Z,17.21
2018-06-05T00:15:35.416Z,17.16
2018-06-05T00:16:44.556Z,17.34
2018-06-05T00:17:53.697Z,17.22
2018-06-05T00:19:02.557Z,17.3
2018-06-05T00:20:11.571Z,17.31
2018-06-05T00:21:20.432Z,17.26
2018-06-05T00:22:29.850Z,17.22
2018-06-05T00:23:38.992Z,17.18
2018-06-05T00:24:48.132Z,17.38
2018-06-05T00:25:57.047Z,17.19
2018-06-05T00:27:05.913Z,17.3
2018-06-05T00:28:14.776Z,17.25
2018-06-05T00:29:23.638Z,17.28
2018-06-05T00:30:32.500Z,17.34
2018-06-05T00:31:41.362Z,17.31
2018-06-05T00:32:50.224Z,17.16
2018-06-05T00:33:59.087Z,17.14
2018-06-05T00:35:07.950Z,17.04
2018-06-05T00:36:16.812Z,17.07
2018-06-05T00:37:25.725Z,17.08
2018-06-05T00:38:35.137Z,17.22
2018-06-05T00:39:43.997Z,17.19
2018-06-05T00:40:52.860Z,17.18
2018-06-05T00:42:01.997Z,17.22
2018-06-05T00:43:11.237Z,17.12
2018-06-05T00:44:20.099Z,17.08
2018-06-05T00:45:28.964Z,17.08
2018-06-05T00:46:37.820Z,17.04
2018-06-05T00:47:47.247Z,17.15
2018-06-05T00:48:56.160Z,16.98
2018-06-05T00:50:05.020Z,17
2018-06-05T00:51:14.160Z,17.06
2018-06-05T00:52:23.021Z,17.14
2018-06-05T00:53:31.883Z,17.11
2018-06-05T00:54:40.842Z,17.12
2018-06-05T00:55:49.980Z,16.98
2018-06-05T00:56:59.122Z,17
2018-06-05T00:58:08.259Z,17.14
2018-06-05T00:59:17.397Z,17.01
2018-06-05T01:00:26.360Z,17.19
2018-06-05T01:01:35.220Z,17.15
2018-06-05T01:02:44.081Z,17.04
2018-06-05T01:03:52.943Z,16.93
2018-06-05T01:05:01.808Z,17.11
2018-06-05T01:06:10.672Z,17.07
2018-06-05T01:07:19.534Z,17.01
2018-06-05T01:08:28.395Z,17.06
2018-06-05T01:09:37.258Z,17.01
2018-06-05T01:10:46.400Z,17.04
2018-06-05T01:11:55.260Z,17.11
2018-06-05T01:13:04.121Z,17.01
2018-06-05T01:14:12.983Z,17
2018-06-05T01:15:21.847Z,17.03
2018-06-05T01:16:30.985Z,17.03
2018-06-05T01:17:39.899Z,17
2018-06-05T01:18:48.759Z,17
2018-06-05T01:19:57.623Z,16.91
2018-06-05T01:21:06.486Z,17
2018-06-05T01:22:15.348Z,16.91
2018-06-05T01:23:24.210Z,16.93
2018-06-05T01:24:33.629Z,16.97
2018-06-05T01:25:42.490Z,16.91
2018-06-05T01:26:51.354Z,16.97
2018-06-05T01:28:00.222Z,16.94
2018-06-05T01:29:09.133Z,16.93
2018-06-05T01:30:17.996Z,17.03
2018-06-05T01:31:27.139Z,17.04
2018-06-05T01:32:36.275Z,16.96
2018-06-05T01:33:45.138Z,16.91
2018-06-05T01:34:54.351Z,16.94
2018-06-05T01:36:03.487Z,16.97
2018-06-05T01:37:12.348Z,16.96
2018-06-05T01:38:21.210Z,16.98
2018-06-05T01:39:30.071Z,16.98
2018-06-05T01:40:38.934Z,16.94
2018-06-05T01:41:47.794Z,16.93
2018-06-05T01:42:56.653Z,16.88
2018-06-05T01:44:05.515Z,16.96
2018-06-05T01:45:14.376Z,16.93
2018-06-05T01:46:23.391Z,16.91
2018-06-05T01:47:32.252Z,16.96
2018-06-05T01:48:41.114Z,16.93
2018-06-05T01:49:50.537Z,16.98
2018-06-05T01:50:59.675Z,16.94
2018-06-05T01:52:08.633Z,17.04
2018-06-05T01:53:17.502Z,16.94
2018-06-05T01:54:26.416Z,17.03
2018-06-05T01:55:35.558Z,17.03
2018-06-05T01:56:44.417Z,17.18
2018-06-05T01:57:53.605Z,17.04
2018-06-05T01:59:02.467Z,16.98
2018-06-05T02:00:11.329Z,17
2018-06-05T02:01:20.192Z,17.07
2018-06-05T02:02:29.052Z,17.08
2018-06-05T02:03:37.917Z,17.14
2018-06-05T02:04:46.777Z,17.07
2018-06-05T02:05:55.642Z,17.11
2018-06-05T02:07:04.506Z,17
2018-06-05T02:08:13.372Z,16.97
2018-06-05T02:09:22.333Z,16.93
2018-06-05T02:10:31.473Z,16.94
2018-06-05T02:11:40.334Z,16.89
2018-06-05T02:12:49.201Z,17.04
2018-06-05T02:13:58.340Z,16.91
2018-06-05T02:15:07.658Z,16.85
2018-06-05T02:16:16.829Z,16.75
2018-06-05T02:17:25.661Z,16.79
2018-06-05T02:18:34.520Z,16.93
2018-06-05T02:19:43.388Z,16.73
2018-06-05T02:20:52.528Z,16.76
2018-06-05T02:22:01.399Z,16.68
2018-06-05T02:23:10.535Z,16.56
2018-06-05T02:24:19.396Z,16.56
2018-06-05T02:25:28.257Z,16.63
2018-06-05T02:26:38.024Z,16.61
2018-06-05T02:27:46.888Z,16.57
2018-06-05T02:28:55.752Z,16.49
2018-06-05T02:30:04.896Z,16.52
2018-06-05T02:31:13.775Z,16.57
2018-06-05T02:32:22.925Z,16.49
2018-06-05T02:33:32.106Z,16.64
2018-06-05T02:34:41.247Z,16.52
2018-06-05T02:35:50.113Z,16.57
2018-06-05T02:36:59.527Z,16.71
2018-06-05T02:38:08.645Z,16.67
2018-06-05T02:39:17.507Z,16.81
2018-06-05T02:40:26.372Z,16.7
2018-06-05T02:41:35.243Z,16.6
2018-06-05T02:42:44.389Z,16.66
2018-06-05T02:43:53.532Z,16.6
2018-06-05T02:45:02.686Z,16.66
2018-06-05T02:46:11.555Z,16.66
2018-06-05T02:47:20.699Z,16.63
2018-06-05T02:48:30.133Z,16.5
2018-06-05T02:49:39.273Z,16.5
2018-06-05T02:50:48.417Z,16.58
2018-06-05T02:51:58.405Z,16.73
2018-06-05T02:53:07.263Z,16.63
2018-06-05T02:54:16.776Z,16.45
2018-06-05T02:55:26.020Z,16.49
2018-06-05T02:56:35.443Z,16.45
2018-06-05T02:57:45.144Z,16.49
2018-06-05T02:58:54.560Z,16.46
2018-06-05T03:00:03.699Z,16.43
2018-06-05T03:01:12.720Z,16.3
2018-06-05T03:02:21.583Z,16.41
2018-06-05T03:03:30.724Z,16.35
2018-06-05T03:04:39.583Z,16.24
2018-06-05T03:05:48.730Z,16.28
2018-06-05T03:06:57.971Z,16.38
2018-06-05T03:08:07.114Z,16.49
2018-06-05T03:09:16.530Z,16.43
2018-06-05T03:10:25.394Z,16.41
2018-06-05T03:11:34.257Z,16.27
2018-06-05T03:12:43.555Z,16.27
2018-06-05T03:13:52.420Z,16.25
2018-06-05T03:15:01.290Z,16.17
2018-06-05T03:16:10.707Z,16.02
2018-06-05T03:17:19.563Z,16.04
2018-06-05T03:18:28.579Z,16.15
2018-06-05T03:19:37.438Z,16.27
2018-06-05T03:20:46.301Z,16.2
2018-06-05T03:21:55.167Z,16.14
2018-06-05T03:23:04.030Z,16.15
2018-06-05T03:24:13.228Z,16.11
2018-06-05T03:25:22.088Z,16.14
2018-06-05T03:26:30.948Z,16.15
2018-06-05T03:27:39.811Z,16.08
2018-06-05T03:28:48.956Z,16.01
2018-06-05T03:29:58.185Z,16.01
2018-06-05T03:31:07.049Z,15.94
2018-06-05T03:32:16.186Z,15.94
2018-06-05T03:33:25.323Z,16.05
2018-06-05T03:34:34.462Z,16
2018-06-05T03:35:43.374Z,16.01
2018-06-05T03:36:52.236Z,15.97
2018-06-05T03:38:01.098Z,15.96
2018-06-05T03:39:10.241Z,15.97
2018-06-05T03:40:19.104Z,15.97
2018-06-05T03:41:28.240Z,16.04
2018-06-05T03:42:37.101Z,16.05
2018-06-05T03:43:45.962Z,16.24
2018-06-05T03:44:55.098Z,16.12
2018-06-05T03:46:03.964Z,16.2
2018-06-05T03:47:12.920Z,16.05
2018-06-05T03:48:21.786Z,16.12
2018-06-05T03:49:31.198Z,16.09
2018-06-05T03:50:40.059Z,15.97
2018-06-05T03:51:48.918Z,16.07
2018-06-05T03:52:58.131Z,16.04
2018-06-05T03:54:06.991Z,16.04
2018-06-05T03:55:16.416Z,16.17
2018-06-05T03:56:25.311Z,16.07
2018-06-05T03:57:34.136Z,16
2018-06-05T03:58:43.540Z,15.92
2018-06-05T03:59:52.404Z,15.94
2018-06-05T04:01:01.542Z,15.97
2018-06-05T04:02:10.405Z,15.97
2018-06-05T04:03:19.542Z,16.01
2018-06-05T04:04:28.837Z,16.14
2018-06-05T04:05:37.699Z,16
2018-06-05T04:06:46.559Z,16.07
2018-06-05T04:07:55.424Z,16.12
2018-06-05T04:09:04.283Z,16.09
2018-06-05T04:10:13.432Z,16.27
2018-06-05T04:11:22.290Z,16.15
2018-06-05T04:12:31.150Z,16.15
2018-06-05T04:13:40.013Z,16.07
2018-06-05T04:14:48.873Z,16.04
2018-06-05T04:15:57.734Z,15.96
2018-06-05T04:17:06.596Z,15.96
2018-06-05T04:18:15.473Z,15.96
2018-06-05T04:19:24.604Z,16
2018-06-05T04:20:33.459Z,16.21
2018-06-05T04:21:42.476Z,16.21
2018-06-05T04:22:51.615Z,16.15
2018-06-05T04:24:00.477Z,16.28
2018-06-05T04:25:09.339Z,16.15
2018-06-05T04:26:18.202Z,16.15
2018-06-05T04:27:27.690Z,16.02
2018-06-05T04:28:36.843Z,16.05
2018-06-05T04:29:45.705Z,16.05
2018-06-05T04:30:54.568Z,15.94
2018-06-05T04:32:03.431Z,16.05
2018-06-05T04:33:12.293Z,16.04
2018-06-05T04:34:21.156Z,16.04
2018-06-05T04:35:30.018Z,15.97
2018-06-05T04:36:39.160Z,15.94
2018-06-05T04:37:48.021Z,16.01
2018-06-05T04:38:56.936Z,16.15
2018-06-05T04:40:05.802Z,16.15
2018-06-05T04:41:14.666Z,16.07
2018-06-05T04:42:24.095Z,16.07
2018-06-05T04:43:32.957Z,16.11
2018-06-05T04:44:42.018Z,16.15
2018-06-05T04:45:51.210Z,16.27
2018-06-05T04:47:00.072Z,16.27
2018-06-05T04:48:08.933Z,16.11
2018-06-05T04:49:17.795Z,16.25
2018-06-05T04:50:27.287Z,16.2
2018-06-05T04:51:36.421Z,16.09
2018-06-05T04:52:45.280Z,16.15
2018-06-05T04:53:54.417Z,16.25
2018-06-05T04:55:03.565Z,16.34
2018-06-05T04:56:12.532Z,16.23
2018-06-05T04:57:21.673Z,16.09
2018-06-05T04:58:30.533Z,16.21
2018-06-05T04:59:39.396Z,16.08
2018-06-05T05:00:48.257Z,16.11
2018-06-05T05:01:57.168Z,16.21
2018-06-05T05:03:06.035Z,16.15
2018-06-05T05:04:14.897Z,16.24
2018-06-05T05:05:23.758Z,16.01
2018-06-05T05:06:32.617Z,16.14
2018-06-05T05:07:41.479Z,16.15
2018-06-05T05:08:50.365Z,16.12
2018-06-05T05:09:59.201Z,16.23
2018-06-05T05:11:08.341Z,16.17
2018-06-05T05:12:17.479Z,16.14
2018-06-05T05:13:26.720Z,16.17
2018-06-05T05:14:35.581Z,16.15
2018-06-05T05:15:44.444Z,16.14
2018-06-05T05:16:53.579Z,16.31
2018-06-05T05:18:02.719Z,16.25
2018-06-05T05:19:11.931Z,16.23
2018-06-05T05:20:21.072Z,16.34
2018-06-05T05:21:29.929Z,16.27
2018-06-05T05:22:38.792Z,16.3
2018-06-05T05:23:47.653Z,16.38
2018-06-05T05:24:56.514Z,16.31
2018-06-05T05:26:05.382Z,16.39
2018-06-05T05:27:14.246Z,16.49
2018-06-05T05:28:23.383Z,16.33
2018-06-05T05:29:32.244Z,16.34
2018-06-05T05:30:41.659Z,16.48
2018-06-05T05:31:50.522Z,16.48
2018-06-05T05:32:59.385Z,16.45
2018-06-05T05:34:08.246Z,16.38
2018-06-05T05:35:17.389Z,16.34
2018-06-05T05:36:26.251Z,16.23
2018-06-05T05:37:35.116Z,16.25
2018-06-05T05:38:43.979Z,16.39
2018-06-05T05:39:52.844Z,16.33
2018-06-05T05:41:01.708Z,16.33
2018-06-05T05:42:10.570Z,16.35
2018-06-05T05:43:19.433Z,16.35
2018-06-05T05:44:28.294Z,16.34
2018-06-05T05:45:37.163Z,16.28
2018-06-05T05:46:46.025Z,16.31
2018-06-05T05:47:54.888Z,16.34
2018-06-05T05:49:03.748Z,16.33
2018-06-05T05:50:12.894Z,16.34
2018-06-05T05:51:21.755Z,16.35
2018-06-05T05:52:30.897Z,16.31
2018-06-05T05:53:40.008Z,16.35
2018-06-05T05:54:48.887Z,16.28
2018-06-05T05:55:58.262Z,16.5
2018-06-05T05:57:07.124Z,16.48
2018-06-05T05:58:16.000Z,16.52
2018-06-05T05:59:24.860Z,16.52
2018-06-05T06:00:33.720Z,16.7
2018-06-05T06:01:42.633Z,16.58
2018-06-05T06:02:51.771Z,16.58
2018-06-05T06:04:00.634Z,16.53
2018-06-05T06:05:09.773Z,16.49
2018-06-05T06:06:18.636Z,16.6
2018-06-05T06:07:27.599Z,16.53
2018-06-05T06:08:36.462Z,16.73
2018-06-05T06:09:45.730Z,16.73
2018-06-05T06:10:54.830Z,16.73
2018-06-05T06:12:03.861Z,16.73
2018-06-05T06:13:13.519Z,16.76
2018-06-05T06:14:22.873Z,16.76
2018-06-05T06:15:32.362Z,16.71
2018-06-05T06:16:41.765Z,16.71
2018-06-05T06:17:50.629Z,16.73
2018-06-05T06:18:59.774Z,16.67
2018-06-05T06:20:08.638Z,16.66
2018-06-05T06:21:17.774Z,16.58
2018-06-05T06:22:26.637Z,16.68
2018-06-05T06:23:35.774Z,16.68
2018-06-05T06:24:44.920Z,16.73
2018-06-05T06:25:53.828Z,16.67
2018-06-05T06:27:03.139Z,16.76
2018-06-05T06:28:12.304Z,16.75
2018-06-05T06:29:21.170Z,16.98
2018-06-05T06:30:30.312Z,16.97
2018-06-05T06:31:39.179Z,16.85
2018-06-05T06:32:48.041Z,16.89
2018-06-05T06:33:56.906Z,16.94
2018-06-05T06:35:05.821Z,16.96
2018-06-05T06:36:14.688Z,16.91
2018-06-05T06:37:23.553Z,16.89
2018-06-05T06:38:32.777Z,16.85
2018-06-05T06:39:41.615Z,16.97
2018-06-05T06:40:50.759Z,17.04
2018-06-05T06:41:59.621Z,17
2018-06-05T06:43:09.047Z,16.94
2018-06-05T06:44:18.159Z,17.06
2018-06-05T06:45:27.020Z,17.08
2018-06-05T06:46:36.156Z,17.21
2018-06-05T06:47:45.345Z,17.15
2018-06-05T06:48:54.333Z,17.15
2018-06-05T06:50:03.599Z,17.18
2018-06-05T06:51:12.463Z,17.16
2018-06-05T06:52:21.326Z,17.14
2018-06-05T06:53:30.187Z,17.15
2018-06-05T06:54:39.351Z,17.19
2018-06-05T06:55:48.748Z,17.22
2018-06-05T06:56:57.898Z,17.18
2018-06-05T06:58:07.039Z,17.31
2018-06-05T06:59:15.906Z,17.41
2018-06-05T07:00:24.772Z,17.33
2018-06-05T07:01:34.264Z,17.26
2018-06-05T07:02:43.439Z,17.31
2018-06-05T07:03:52.274Z,17.3
2018-06-05T07:05:01.139Z,17.25
2018-06-05T07:06:10.003Z,17.19
2018-06-05T07:07:19.146Z,17.19
2018-06-05T07:08:28.010Z,17.23
2018-06-05T07:09:36.876Z,17.18
2018-06-05T07:10:45.738Z,17.18
2018-06-05T07:11:54.600Z,17.3
2018-06-05T07:13:03.464Z,17.19
2018-06-05T07:14:12.607Z,17.28
2018-06-05T07:15:21.469Z,17.4
2018-06-05T07:16:30.611Z,17.36
2018-06-05T07:17:39.475Z,17.4
2018-06-05T07:18:48.488Z,17.51
2018-06-05T07:19:57.349Z,17.37
2018-06-05T07:21:06.216Z,17.52
2018-06-05T07:22:15.076Z,17.63
2018-06-05T07:23:23.938Z,17.64
2018-06-05T07:24:32.803Z,17.56
2018-06-05T07:25:41.667Z,17.7
2018-06-05T07:26:50.529Z,17.58
2018-06-05T07:27:59.391Z,17.48
2018-06-05T07:29:08.255Z,17.51
2018-06-05T07:30:18.072Z,17.4
2018-06-05T07:31:26.924Z,17.41
2018-06-05T07:32:36.064Z,17.36
2018-06-05T07:33:44.938Z,17.36
2018-06-05T07:34:54.080Z,17.38
2018-06-05T07:36:03.294Z,17.36
2018-06-05T07:37:12.164Z,17.44
2018-06-05T07:38:21.029Z,17.44
2018-06-05T07:39:29.893Z,17.52
2018-06-05T07:40:38.761Z,17.56
2018-06-05T07:41:48.064Z,17.55
2018-06-05T07:42:57.201Z,17.55
2018-06-05T07:44:06.063Z,17.59
2018-06-05T07:45:14.930Z,17.55
2018-06-05T07:46:23.793Z,17.66
2018-06-05T07:47:32.759Z,17.72
2018-06-05T07:48:41.903Z,17.68
2018-06-05T07:49:50.766Z,17.89
2018-06-05T07:51:00.223Z,18.02
2018-06-05T07:52:09.087Z,18.12
2018-06-05T07:53:18.049Z,18.02
2018-06-05T07:54:26.911Z,18.02
2018-06-05T07:55:35.777Z,17.87
2018-06-05T07:56:44.917Z,17.78
2018-06-05T07:57:53.781Z,17.9
2018-06-05T07:59:02.793Z,17.95
2018-06-05T08:00:11.657Z,17.97
2018-06-05T08:01:20.807Z,18.07
2018-06-05T08:02:29.677Z,18.14
2018-06-05T08:03:38.819Z,18.08
2018-06-05T08:04:48.033Z,18.02
2018-06-05T08:05:56.897Z,17.96
2018-06-05T08:07:05.764Z,17.99
2018-06-05T08:08:14.629Z,17.93
2018-06-05T08:09:23.771Z,18.03
2018-06-05T08:10:32.784Z,18.18
2018-06-05T08:11:41.650Z,18.11
2018-06-05T08:12:51.131Z,18.21
2018-06-05T08:13:59.994Z,18.27
2018-06-05T08:15:08.861Z,18.2
2018-06-05T08:16:18.199Z,18.1
2018-06-05T08:17:27.065Z,18.2
2018-06-05T08:18:36.206Z,18.07
2018-06-05T08:19:45.071Z,18.1
2018-06-05T08:20:53.935Z,18.15
2018-06-05T08:22:02.902Z,17.92
2018-06-05T08:23:12.319Z,17.95
2018-06-05T08:24:21.190Z,17.92
2018-06-05T08:25:30.365Z,17.92
2018-06-05T08:26:39.508Z,17.86
2018-06-05T08:27:48.793Z,17.9
2018-06-05T08:28:57.657Z,17.79
2018-06-05T08:30:06.521Z,17.89
2018-06-05T08:31:15.387Z,17.7
2018-06-05T08:32:24.253Z,17.72
2018-06-05T08:33:33.166Z,17.68
2018-06-05T08:34:42.028Z,17.78
2018-06-05T08:35:50.892Z,17.86
2018-06-05T08:36:59.755Z,17.97
2018-06-05T08:38:08.618Z,18.14
2018-06-05T08:39:17.832Z,18.29
2018-06-05T08:40:26.694Z,18.27
2018-06-05T08:41:35.563Z,18.15
2018-06-05T08:42:44.427Z,18.14
2018-06-05T08:43:53.290Z,18.29
2018-06-05T08:45:02.206Z,18.25
2018-06-05T08:46:11.075Z,18.3
2018-06-05T08:47:20.214Z,18.15
2018-06-05T08:48:29.353Z,18.29
2018-06-05T08:49:38.217Z,18.15
2018-06-05T08:50:47.130Z,18.23
2018-06-05T08:51:55.994Z,18.18
2018-06-05T08:53:04.858Z,18.21
2018-06-05T08:54:13.725Z,18.23
2018-06-05T08:55:23.229Z,18.2
2018-06-05T08:56:32.140Z,18.33
2018-06-05T08:57:41.006Z,18.5
2018-06-05T08:58:50.152Z,18.58
2018-06-05T08:59:59.391Z,18.73
2018-06-05T09:01:08.817Z,18.84
2018-06-05T09:02:17.679Z,18.87
2018-06-05T09:03:26.543Z,18.92
2018-06-05T09:04:35.408Z,18.82
2018-06-05T09:05:44.272Z,18.85
2018-06-05T09:06:53.137Z,18.95
2018-06-05T09:08:02.380Z,18.98
2018-06-05T09:09:11.245Z,18.95
2018-06-05T09:10:20.678Z,19
2018-06-05T09:11:29.861Z,19.07
2018-06-05T09:12:38.723Z,18.95
2018-06-05T09:13:47.738Z,18.99
2018-06-05T09:14:56.603Z,18.82
2018-06-05T09:16:05.466Z,18.82
2018-06-05T09:17:14.334Z,18.78
2018-06-05T09:18:23.199Z,18.91
2018-06-05T09:19:32.113Z,18.94
2018-06-05T09:20:40.979Z,19
2018-06-05T09:21:50.121Z,19.08
2018-06-05T09:22:58.985Z,19.16
2018-06-05T09:24:07.853Z,19.08
2018-06-05T09:25:16.821Z,19.08
2018-06-05T09:26:25.688Z,19.06
2018-06-05T09:27:34.554Z,19.08
2018-06-05T09:28:43.424Z,19.16
2018-06-05T09:29:52.288Z,19.06
2018-06-05T09:31:01.302Z,19.16
2018-06-05T09:32:10.167Z,19.32
2018-06-05T09:33:19.030Z,19.29
2018-06-05T09:34:27.933Z,19.4
2018-06-05T09:35:37.397Z,19.37
2018-06-05T09:36:46.512Z,19.32
2018-06-05T09:37:55.378Z,19.16
2018-06-05T09:39:04.516Z,19.1
2018-06-05T09:40:13.382Z,19.14
2018-06-05T09:41:22.248Z,19.07
2018-06-05T09:42:31.361Z,19.08
2018-06-05T09:43:40.235Z,19.08
2018-06-05T09:44:49.098Z,19.06
2018-06-05T09:45:57.964Z,19.02
2018-06-05T09:47:06.830Z,18.92
2018-06-05T09:48:15.797Z,18.95
2018-06-05T09:49:24.662Z,18.91
2018-06-05T09:50:33.523Z,18.99
2018-06-05T09:51:42.388Z,19.07
2018-06-05T09:52:51.530Z,19.14
2018-06-05T09:54:00.443Z,19.18
2018-06-05T09:55:09.311Z,19.16
2018-06-05T09:56:18.177Z,19.29
2018-06-05T09:57:27.041Z,19.33
2018-06-05T09:58:36.850Z,19.29
2018-06-05T09:59:45.665Z,19.37
2018-06-05T10:00:54.848Z,19.51
2018-06-05T10:02:03.712Z,19.62
2018-06-05T10:03:12.593Z,19.65
2018-06-05T10:04:21.440Z,19.63
2018-06-05T10:05:30.405Z,19.44
2018-06-05T10:06:39.266Z,19.55
2018-06-05T10:07:48.130Z,19.56
2018-06-05T10:08:57.283Z,19.77
2018-06-05T10:10:06.150Z,19.8
2018-06-05T10:11:15.015Z,19.76
2018-06-05T10:12:23.880Z,19.69
2018-06-05T10:13:33.019Z,19.77
2018-06-05T10:14:41.884Z,19.96
2018-06-05T10:15:50.747Z,20.05
2018-06-05T10:16:59.660Z,20.05
2018-06-05T10:18:08.820Z,19.96
2018-06-05T10:19:17.957Z,20.03
2018-06-05T10:20:26.858Z,20.1
2018-06-05T10:21:35.972Z,20.13
2018-06-05T10:22:44.949Z,20.14
2018-06-05T10:23:53.812Z,20.18
2018-06-05T10:25:02.965Z,20.13
2018-06-05T10:26:12.109Z,20.05
2018-06-05T10:27:20.972Z,20.11
2018-06-05T10:28:30.364Z,20.08
2018-06-05T10:29:39.231Z,20.05
2018-06-05T10:30:48.097Z,20.05
2018-06-05T10:31:56.960Z,20.05
2018-06-05T10:33:05.823Z,20.18
2018-06-05T10:34:14.688Z,20.16
2018-06-05T10:35:23.553Z,20.2
2018-06-05T10:36:32.417Z,20.31
2018-06-05T10:37:41.561Z,20.43
2018-06-05T10:38:50.425Z,20.48
2018-06-05T10:39:59.716Z,20.58
2018-06-05T10:41:08.860Z,20.72
2018-06-05T10:42:17.725Z,20.67
2018-06-05T10:43:26.588Z,20.72
2018-06-05T10:44:35.454Z,20.66
2018-06-05T10:45:44.421Z,20.58
2018-06-05T10:46:53.283Z,20.61
2018-06-05T10:48:02.145Z,20.48
2018-06-05T10:49:11.013Z,20.51
2018-06-05T10:50:19.876Z,20.39
2018-06-05T10:51:28.742Z,20.5
2018-06-05T10:52:37.605Z,20.66
2018-06-05T10:53:46.486Z,20.76
2018-06-05T10:54:55.668Z,20.74
2018-06-05T10:56:04.534Z,20.76
2018-06-05T10:57:13.450Z,20.92
2018-06-05T10:58:22.590Z,20.95
2018-06-05T10:59:31.454Z,21.07
2018-06-05T11:00:40.320Z,21.09
2018-06-05T11:01:49.185Z,21.21
2018-06-05T11:02:58.198Z,21.28
2018-06-05T11:04:07.345Z,21.27
2018-06-05T11:05:16.207Z,21.32
2018-06-05T11:06:25.632Z,21.28
2018-06-05T11:07:34.497Z,21.32
2018-06-05T11:08:43.712Z,21.43
2018-06-05T11:09:52.577Z,21.47
2018-06-05T11:11:01.453Z,21.46
2018-06-05T11:12:10.320Z,21.58
2018-06-05T11:13:19.183Z,21.47
2018-06-05T11:14:28.405Z,21.65
2018-06-05T11:15:37.599Z,21.4
2018-06-05T11:16:46.742Z,21.4
2018-06-05T11:17:55.634Z,21.32
2018-06-05T11:19:04.779Z,21.37
2018-06-05T11:20:13.644Z,21.38
2018-06-05T11:21:22.787Z,21.46
2018-06-05T11:22:31.932Z,21.31
2018-06-05T11:23:41.163Z,21.29
2018-06-05T11:24:50.272Z,21.27
2018-06-05T11:25:59.139Z,21.42
2018-06-05T11:27:08.007Z,21.54
2018-06-05T11:28:16.875Z,21.69
2018-06-05T11:29:25.749Z,21.72
2018-06-05T11:30:34.893Z,21.9
2018-06-05T11:31:44.011Z,22
2018-06-05T11:32:53.152Z,22.05
2018-06-05T11:34:02.296Z,22.03
2018-06-05T11:35:11.715Z,22.09
2018-06-05T11:36:20.583Z,22.09
2018-06-05T11:37:29.811Z,21.94
2018-06-05T11:38:39.193Z,21.84
2018-06-05T11:39:48.063Z,21.98
2018-06-05T11:40:57.271Z,22.17
2018-06-05T11:42:06.566Z,22.22
2018-06-05T11:43:16.058Z,22.18
2018-06-05T11:44:25.207Z,22.39
2018-06-05T11:45:34.069Z,22.47
2018-06-05T11:46:43.282Z,22.3
2018-06-05T11:47:52.117Z,22.21
2018-06-05T11:49:01.920Z,22.31
2018-06-05T11:50:10.789Z,22.4
2018-06-05T11:51:19.719Z,22.61
2018-06-05T11:52:28.619Z,22.77
2018-06-05T11:53:37.767Z,23.01
2018-06-05T11:54:46.733Z,23.23
2018-06-05T11:55:55.615Z,23.5
2018-06-05T11:57:04.490Z,23.51
2018-06-05T11:58:13.653Z,23.66
2018-06-05T11:59:22.536Z,23.66
2018-06-05T12:00:31.754Z,23.51
2018-06-05T12:01:40.645Z,23.69
2018-06-05T12:02:49.796Z,23.76
2018-06-05T12:03:58.945Z,23.79
2018-06-05T12:05:07.814Z,23.7
2018-06-05T12:06:17.160Z,23.78
2018-06-05T12:07:26.031Z,23.95
2018-06-05T12:08:34.905Z,23.91
2018-06-05T12:09:43.775Z,23.9
2018-06-05T12:10:52.645Z,23.68
2018-06-05T12:12:01.669Z,23.68
2018-06-05T12:13:10.544Z,23.6
2018-06-05T12:14:19.690Z,23.84
2018-06-05T12:15:28.561Z,24.1
2018-06-05T12:16:37.433Z,24.09
2018-06-05T12:17:46.472Z,24.13
2018-06-05T12:18:55.279Z,24.16
2018-06-05T12:20:04.149Z,24.58
2018-06-05T12:21:13.026Z,24.61
2018-06-05T12:22:21.910Z,24.81
2018-06-05T12:23:31.511Z,24.8
2018-06-05T12:24:40.396Z,24.85
2018-06-05T12:25:49.644Z,24.62
2018-06-05T12:26:58.520Z,24.62
2018-06-05T12:28:07.391Z,24.9
2018-06-05T12:29:16.516Z,24.73
2018-06-05T12:30:25.389Z,24.84
2018-06-05T12:31:34.263Z,24.8
2018-06-05T12:32:43.136Z,24.95
2018-06-05T12:33:52.013Z,24.96
2018-06-05T12:35:00.888Z,25.05
2018-06-05T12:36:09.762Z,24.99
2018-06-05T12:37:18.640Z,25.1
2018-06-05T12:38:27.792Z,25.36
2018-06-05T12:39:36.667Z,25.52
2018-06-05T12:40:45.899Z,25.75
2018-06-05T12:41:54.773Z,25.8
2018-06-05T12:43:03.648Z,25.9
2018-06-05T12:44:12.521Z,25.91
2018-06-05T12:45:21.397Z,26.05
2018-06-05T12:46:30.326Z,25.97
2018-06-05T12:47:39.202Z,26.13
2018-06-05T12:48:48.081Z,26.26
2018-06-05T12:49:57.235Z,26.23
2018-06-05T12:51:06.108Z,26.17
2018-06-05T12:52:15.088Z,25.98
2018-06-05T12:53:23.961Z,26.09
2018-06-05T12:54:32.837Z,26.1
2018-06-05T12:55:41.716Z,26.12
2018-06-05T12:56:50.590Z,26.13
2018-06-05T12:57:59.505Z,26.25
2018-06-05T12:59:08.757Z,26.44
2018-06-05T13:00:17.636Z,26.45
2018-06-05T13:01:26.759Z,26.5
2018-06-05T13:02:35.781Z,26.8
2018-06-05T13:03:45.309Z,26.94
2018-06-05T13:04:54.292Z,27
2018-06-05T13:06:03.169Z,27
2018-06-05T13:07:12.327Z,26.99
2018-06-05T13:08:21.202Z,26.89
2018-06-05T13:09:30.081Z,26.94
2018-06-05T13:10:38.966Z,26.92
2018-06-05T13:11:48.179Z,26.88
2018-06-05T13:12:57.650Z,27.24
2018-06-05T13:14:06.804Z,27.21
2018-06-05T13:15:15.832Z,27.4
2018-06-05T13:16:24.995Z,27.5
2018-06-05T13:17:34.518Z,27.44
2018-06-05T13:18:43.753Z,27.54
2018-06-05T13:19:52.913Z,27.44
2018-06-05T13:21:01.945Z,27.39
2018-06-05T13:22:10.822Z,27.62
2018-06-05T13:23:19.704Z,27.59
2018-06-05T13:24:28.579Z,27.66
2018-06-05T13:25:37.733Z,27.72
2018-06-05T13:26:46.617Z,27.72
2018-06-05T13:27:55.498Z,27.69
2018-06-05T13:29:04.663Z,27.82
2018-06-05T13:30:13.535Z,28.09
2018-06-05T13:31:22.413Z,28.09
2018-06-05T13:32:31.341Z,28.25
2018-06-05T13:33:40.226Z,28.29
2018-06-05T13:34:49.108Z,28.24
2018-06-05T13:35:57.988Z,28.24
2018-06-05T13:37:06.872Z,28.17
2018-06-05T13:38:15.905Z,28.22
2018-06-05T13:39:24.788Z,28.41
2018-06-05T13:40:33.951Z,28.46
2018-06-05T13:41:42.888Z,28.56
2018-06-05T13:42:52.000Z,28.68
2018-06-05T13:44:01.296Z,28.77
2018-06-05T13:45:10.496Z,28.9
2018-06-05T13:46:19.379Z,28.93
2018-06-05T13:47:28.539Z,29.14
2018-06-05T13:48:37.419Z,29.3
2018-06-05T13:49:46.350Z,29.31
2018-06-05T13:50:55.231Z,29.14
2018-06-05T13:52:04.112Z,29.21
2018-06-05T13:53:12.993Z,29.24
2018-06-05T13:54:21.903Z,29.15
2018-06-05T13:55:31.063Z,29.23
2018-06-05T13:56:39.945Z,29.36
2018-06-05T13:57:48.828Z,29.52
2018-06-05T13:58:57.983Z,29.58
2018-06-05T14:00:06.865Z,29.52
2018-06-05T14:01:15.896Z,29.64
2018-06-05T14:02:24.781Z,29.61
2018-06-05T14:03:33.942Z,29.76
2018-06-05T14:04:42.827Z,29.87
2018-06-05T14:05:51.707Z,30
2018-06-05T14:07:00.640Z,29.94
2018-06-05T14:08:09.809Z,30.04
2018-06-05T14:09:19.535Z,30.15
2018-06-05T14:10:28.289Z,30.45
2018-06-05T14:11:37.183Z,30.46
2018-06-05T14:12:46.113Z,30.62
2018-06-05T14:13:54.995Z,30.77
2018-06-05T14:15:04.161Z,30.84
2018-06-05T14:16:13.043Z,30.86
2018-06-05T14:17:21.927Z,30.92
2018-06-05T14:18:30.811Z,31.09
2018-06-05T14:19:39.981Z,30.99
2018-06-05T14:20:48.874Z,31.1
2018-06-05T14:21:58.087Z,31.25
2018-06-05T14:23:06.974Z,31.36
2018-06-05T14:24:16.308Z,31.43
2018-06-05T14:25:25.476Z,31.46
2018-06-05T14:26:34.359Z,31.69
2018-06-05T14:27:43.241Z,31.54
2018-06-05T14:28:52.169Z,31.51
2018-06-05T14:30:01.014Z,31.25
2018-06-05T14:31:09.892Z,31.32
2018-06-05T14:32:18.772Z,31.35
2018-06-05T14:33:27.654Z,31.39
2018-06-05T14:34:36.538Z,31.44
2018-06-05T14:35:45.426Z,31.39
2018-06-05T14:36:54.589Z,31.5
2018-06-05T14:38:03.746Z,31.69
2018-06-05T14:39:12.911Z,31.66
2018-06-05T14:40:21.791Z,31.44
2018-06-05T14:41:30.949Z,31.53
2018-06-05T14:42:39.835Z,31.72
2018-06-05T14:43:48.715Z,31.66
2018-06-05T14:44:58.030Z,31.46
2018-06-05T14:46:07.626Z,31.31
2018-06-05T14:47:16.513Z,31.07
2018-06-05T14:48:25.399Z,31.14
2018-06-05T14:49:34.562Z,31.35
2018-06-05T14:50:43.446Z,31.56
2018-06-05T14:51:52.534Z,31.43
2018-06-05T14:53:01.690Z,31.62